Lisbon, Portugal
Current Conditions -  °F | °C
As of 6:30 PM on Sunday 25 Jan 2015 (Local Time) from LPPT Reporting Station
Clear Clear  
Wind Chill: 55°   Ceiling: Unl
Heat Index: 55°   Visibility: 6mi
Dew Point: 45°   Wind: 13mph
Humidity: 67%   Direction: 340°NNW
Pressure: 30.33"   Gusts: NA
Location:  38.72°N, 9.14°W
Report Text: LPPT 251830Z 34011KT CAVOK 13/07 Q1027
Loading
Personal Weather Stations






























Interactive Weather Map New forecast layout! Learn more

10-Day Weather Forecast

Advertisements
Track Severe Weather on mobile